ROMMA est une association bénévole à but non lucratif. Votre soutien est indispensable : ADHERER à ROMMA ou FAIRE un DON

Briord - (01, Ain)

Bugey (281 m)   Longitude: 05° 29' 13" E   Latitude: 45° 46' 37" N Station partenaire n°15
 

Détail journalier du     <<     >>

Température Precipitation Humidité Pression Vent Dir Rafale Dir. rafale Ensol.
Heure (°C) (mm) (%) (hPa) (km/h) (km/h) (min)
01:00 18.7070101406ESE0
02:00 17.7075101403SE0
03:00 17.3073101406E0
04:00 16.3078101402E0
05:00 15.9081101402E0
06:00 15.4083101302SSE0
07:00 15.1085101400---0
08:00 17.4083101502SSE0
09:00 21.9072101505SE30
10:00 24.9063101506NNO55
11:00 27.604810154NO15SE60
12:00 28.804510143SE15SE60
13:00 29.804510143SSE18O60
14:00 31.404010134SE18S60
15:00 32.503710133SSE16SSE60
16:00 33.403810124O18ONO60
17:00 33.603710114NO19NNO60
18:00 34.303710113O19N60
19:00 30.10511011010O0
20:00 29.1054101105S10
21:00 27.2059101106NNE35
22:00 24.6064101208N0
23:00 23.1067101205SSO0
minuit 21.3074101306E0

Graphique du 05-08-2019

 

Serveur OMMA